Time;durP1;ratioP1;P1;durP2;ratioP2;P2;SDS_P1;SDS_P2;PMS_P1;PMS_P2;Temp;Humidity;BMP_temperature;BMP_pressure;BME280_temperature;BME280_humidity;BME280_pressure;Samples;Min_cycle;Max_cycle;Signal;HPM_P1;HPM_P2
2022/06/25 00:01:11;;;;;;;6.10;5.60;;;17.90;99.90;;;;;;4996681;28;20191;-80
2022/06/25 00:03:37;;;;;;;5.30;4.80;;;17.90;99.90;;;;;;4998443;28;20276;-80
2022/06/25 00:06:03;;;;;;;5.07;4.57;;;17.90;99.90;;;;;;4997939;28;20266;-81
2022/06/25 00:08:29;;;;;;;6.03;5.47;;;17.80;99.90;;;;;;4996716;28;20211;-80
2022/06/25 00:10:55;;;;;;;6.10;5.50;;;17.90;99.90;;;;;;4998569;28;20180;-80
2022/06/25 00:13:21;;;;;;;6.72;5.60;;;17.90;99.90;;;;;;4998497;28;20244;-80
2022/06/25 00:15:47;;;;;;;8.60;5.68;;;17.90;99.90;;;;;;4998547;28;20226;-80
2022/06/25 00:18:14;;;;;;;5.57;5.07;;;17.90;99.90;;;;;;5013907;28;21074;-80
2022/06/25 00:20:40;;;;;;;6.32;5.65;;;17.90;99.90;;;;;;4997441;28;20242;-80
2022/06/25 00:23:06;;;;;;;6.10;5.13;;;17.90;99.90;;;;;;4997226;28;20556;-81
2022/06/25 00:25:32;;;;;;;8.73;6.50;;;17.90;99.90;;;;;;4998589;28;20216;-79
2022/06/25 00:27:58;;;;;;;6.80;6.10;;;17.90;99.90;;;;;;4998808;28;20725;-80
2022/06/25 00:30:23;;;;;;;10.27;7.60;;;17.90;99.90;;;;;;4998386;28;20563;-80
2022/06/25 00:32:49;;;;;;;7.68;6.93;;;17.90;99.90;;;;;;4996537;28;21227;-80
2022/06/25 00:35:15;;;;;;;8.38;7.63;;;17.90;99.90;;;;;;4997381;28;20198;-79
2022/06/25 00:37:41;;;;;;;7.57;6.65;;;17.90;99.90;;;;;;4997070;28;20247;-80
2022/06/25 00:40:07;;;;;;;8.68;7.85;;;17.90;99.90;;;;;;4999113;28;20232;-80
2022/06/25 00:42:33;;;;;;;11.40;8.20;;;17.90;99.90;;;;;;4998460;28;20172;-79
2022/06/25 00:44:59;;;;;;;9.32;7.15;;;17.90;99.90;;;;;;4997013;28;20555;-79
2022/06/25 00:47:24;;;;;;;10.60;8.00;;;17.90;99.90;;;;;;4997121;28;20207;-79
2022/06/25 00:49:50;;;;;;;9.98;9.07;;;17.90;99.90;;;;;;4995782;28;20941;-80
2022/06/25 00:52:18;;;;;;;10.70;8.13;;;17.90;99.90;;;;;;4998346;28;20175;-79
2022/06/25 00:54:56;;;;;;;8.50;7.60;;;17.90;99.90;;;;;;5013735;28;20203;-81
2022/06/25 00:57:24;;;;;;;7.72;6.53;;;17.90;99.90;;;;;;4997736;28;20244;-80
2022/06/25 00:59:52;;;;;;;10.20;7.45;;;17.90;99.90;;;;;;4995957;28;20204;-80
2022/06/25 01:02:20;;;;;;;10.15;9.15;;;17.90;99.90;;;;;;4997742;28;20172;-80
2022/06/25 01:04:48;;;;;;;9.90;8.20;;;17.90;99.90;;;;;;4997521;28;20298;-80
2022/06/25 01:07:13;;;;;;;10.63;8.02;;;17.90;99.90;;;;;;4997578;28;20192;-81
2022/06/25 01:09:40;;;;;;;8.95;8.05;;;17.80;99.90;;;;;;4995936;28;20202;-79
2022/06/25 01:12:06;;;;;;;9.57;7.82;;;17.80;99.90;;;;;;4996412;28;20271;-81
2022/06/25 01:14:32;;;;;;;13.48;8.07;;;17.80;99.90;;;;;;4996926;28;20222;-80
2022/06/25 01:16:58;;;;;;;10.70;9.63;;;17.80;99.90;;;;;;4995968;28;20207;-80
2022/06/25 01:19:23;;;;;;;9.25;8.27;;;17.80;99.90;;;;;;4995998;28;20211;-80
2022/06/25 01:21:49;;;;;;;10.50;8.45;;;17.80;99.90;;;;;;4996700;28;20540;-80
2022/06/25 01:24:14;;;;;;;8.95;8.15;;;17.80;99.90;;;;;;4996556;28;20295;-80
2022/06/25 01:26:41;;;;;;;9.88;8.85;;;17.80;99.90;;;;;;4997479;28;20192;-80
2022/06/25 01:29:08;;;;;;;11.73;9.77;;;17.70;99.90;;;;;;4997369;28;20212;-79
2022/06/25 01:31:36;;;;;;;10.38;9.32;;;17.70;99.90;;;;;;4996273;28;20184;-80
2022/06/25 01:34:03;;;;;;;13.98;9.65;;;17.70;99.90;;;;;;4997329;28;20239;-80
2022/06/25 01:36:28;;;;;;;9.85;8.68;;;17.70;99.90;;;;;;4997794;28;20208;-80
2022/06/25 01:38:54;;;;;;;10.02;9.02;;;17.70;99.90;;;;;;4996169;28;20215;-80
2022/06/25 01:41:19;;;;;;;10.25;9.20;;;17.70;99.90;;;;;;4996265;28;20181;-79
2022/06/25 01:43:46;;;;;;;9.75;8.82;;;17.60;99.90;;;;;;4997950;28;20190;-80
2022/06/25 01:46:12;;;;;;;9.73;8.35;;;17.60;99.90;;;;;;4996075;28;20191;-79
2022/06/25 01:48:38;;;;;;;10.50;8.38;;;17.60;99.90;;;;;;4995864;28;20254;-80
2022/06/25 01:51:04;;;;;;;9.07;8.18;;;17.60;99.90;;;;;;4995661;28;20204;-80
2022/06/25 01:53:30;;;;;;;10.00;8.65;;;17.60;99.90;;;;;;4997226;28;20711;-79
2022/06/25 01:55:56;;;;;;;8.73;7.82;;;17.60;99.90;;;;;;5012138;28;22154;-78
2022/06/25 01:58:22;;;;;;;9.75;8.23;;;17.60;99.90;;;;;;4995237;28;20297;-79
2022/06/25 02:00:48;;;;;;;9.70;8.70;;;17.50;99.90;;;;;;4997133;28;20209;-80
2022/06/25 02:03:14;;;;;;;10.45;8.02;;;17.50;99.90;;;;;;4995475;28;20643;-80
2022/06/25 02:05:56;;;;;;;9.57;8.68;;;17.50;99.90;;;;;;4996630;28;20331;-80
2022/06/25 02:08:23;;;;;;;10.35;8.73;;;17.50;99.90;;;;;;5011284;28;20188;-80
2022/06/25 02:10:49;;;;;;;10.07;8.57;;;17.50;99.90;;;;;;4995137;28;20728;-80
2022/06/25 02:13:16;;;;;;;8.82;7.95;;;17.50;99.90;;;;;;4995413;28;20176;-80
2022/06/25 02:15:42;;;;;;;10.55;8.90;;;17.50;99.90;;;;;;4996811;28;20254;-80
2022/06/25 02:18:08;;;;;;;11.15;9.45;;;17.50;99.90;;;;;;4997103;28;20598;-79
2022/06/25 02:20:34;;;;;;;12.98;10.05;;;17.30;99.90;;;;;;4995820;28;20200;-79
2022/06/25 02:23:00;;;;;;;13.23;11.32;;;17.20;99.90;;;;;;4995778;28;20188;-80
2022/06/25 02:25:26;;;;;;;12.25;11.07;;;17.20;99.90;;;;;;4996544;28;20193;-80
2022/06/25 02:27:51;;;;;;;16.02;10.93;;;17.10;99.90;;;;;;4994983;28;20183;-79
2022/06/25 02:30:17;;;;;;;13.43;11.90;;;17.20;99.90;;;;;;4996482;28;20196;-80
2022/06/25 02:32:42;;;;;;;12.95;11.35;;;17.20;99.90;;;;;;4996264;28;20230;-80
2022/06/25 02:35:08;;;;;;;12.55;10.70;;;17.20;99.90;;;;;;4993951;28;20192;-80
2022/06/25 02:37:34;;;;;;;13.07;11.02;;;17.00;99.90;;;;;;5012366;28;20200;-79
2022/06/25 02:40:00;;;;;;;18.52;12.60;;;16.90;99.90;;;;;;4995386;28;20207;-79
2022/06/25 02:42:36;;;;;;;13.75;11.50;;;16.90;99.90;;;;;;4996716;28;20212;-79
2022/06/25 02:45:03;;;;;;;13.98;11.82;;;16.90;99.90;;;;;;5012397;28;20207;-79
2022/06/25 02:47:28;;;;;;;15.30;11.32;;;16.70;99.90;;;;;;4995385;28;20191;-80
2022/06/25 02:49:54;;;;;;;13.52;11.52;;;16.60;99.90;;;;;;4997249;28;20577;-80
2022/06/25 02:52:20;;;;;;;13.35;11.68;;;16.70;99.90;;;;;;4995725;28;20658;-79
2022/06/25 02:54:46;;;;;;;13.75;12.10;;;16.90;99.90;;;;;;4994521;28;20199;-80
2022/06/25 02:59:55;;;;;;;15.07;12.10;;;16.90;99.90;;;;;;4997080;28;20211;-80
2022/06/25 03:02:21;;;;;;;13.32;10.65;;;17.00;99.90;;;;;;4996066;28;20179;-79
2022/06/25 03:04:46;;;;;;;13.32;11.93;;;17.00;99.90;;;;;;4995045;28;20188;-79
2022/06/25 03:07:12;;;;;;;15.27;11.38;;;17.00;99.90;;;;;;4995472;28;20954;-79
2022/06/25 03:09:37;;;;;;;17.15;12.30;;;17.00;99.90;;;;;;4994277;28;20728;-83
2022/06/25 03:12:03;;;;;;;16.55;11.55;;;17.00;99.90;;;;;;4994725;28;20249;-84
2022/06/25 03:14:29;;;;;;;14.02;12.27;;;16.90;99.90;;;;;;4994217;28;20630;-83
2022/06/25 03:16:54;;;;;;;12.50;11.00;;;17.00;99.90;;;;;;4992435;28;20222;-84
2022/06/25 03:19:20;;;;;;;14.57;11.18;;;17.00;99.90;;;;;;4993337;28;20231;-83
2022/06/25 03:21:46;;;;;;;16.35;12.38;;;17.00;99.90;;;;;;4994449;28;20298;-84
2022/06/25 03:24:12;;;;;;;12.45;11.10;;;17.00;99.90;;;;;;4997617;28;20644;-85
2022/06/25 03:26:37;;;;;;;14.63;11.68;;;16.90;99.90;;;;;;5013472;28;20272;-83
2022/06/25 03:29:03;;;;;;;19.48;11.55;;;17.00;99.90;;;;;;4999333;28;20243;-83
2022/06/25 03:31:29;;;;;;;15.85;11.27;;;16.90;99.90;;;;;;4998214;28;20180;-84
2022/06/25 03:33:55;;;;;;;14.07;10.65;;;16.90;99.90;;;;;;4999188;28;20196;-79
2022/06/25 03:36:21;;;;;;;14.10;11.05;;;16.90;99.90;;;;;;4997718;28;20226;-78
2022/06/25 03:38:46;;;;;;;11.88;10.65;;;16.90;99.90;;;;;;4997243;28;20199;-80
2022/06/25 03:43:56;;;;;;;10.95;9.75;;;17.10;99.90;;;;;;5000108;28;20265;-79
2022/06/25 03:46:22;;;;;;;12.18;10.10;;;17.20;99.90;;;;;;4999508;28;20615;-79
2022/06/25 03:48:48;;;;;;;16.63;8.90;;;17.30;99.90;;;;;;4996288;28;20219;-79
2022/06/25 03:51:14;;;;;;;12.45;9.90;;;17.40;99.90;;;;;;4998622;28;20181;-80
2022/06/25 03:53:40;;;;;;;10.60;9.48;;;17.40;99.90;;;;;;4999073;28;20211;-80
2022/06/25 03:56:07;;;;;;;11.18;8.88;;;17.40;99.90;;;;;;4997743;28;20704;-80
2022/06/25 03:58:32;;;;;;;9.77;7.90;;;17.40;99.90;;;;;;4997461;28;20200;-79
2022/06/25 04:00:58;;;;;;;10.73;8.50;;;17.50;99.90;;;;;;4999628;28;20199;-80
2022/06/25 04:03:23;;;;;;;9.10;8.00;;;17.60;99.90;;;;;;4999206;28;20182;-80
2022/06/25 04:05:49;;;;;;;10.85;7.43;;;17.60;99.90;;;;;;4998977;28;20189;-79
2022/06/25 04:08:15;;;;;;;12.80;8.40;;;17.60;99.90;;;;;;4997588;28;20171;-80
2022/06/25 04:10:42;;;;;;;9.88;8.43;;;17.70;99.90;;;;;;4999846;28;20748;-80
2022/06/25 04:13:08;;;;;;;8.10;7.05;;;17.70;99.90;;;;;;4995633;28;20203;-79
2022/06/25 04:15:33;;;;;;;10.73;7.55;;;17.80;99.90;;;;;;4997404;28;20556;-79
2022/06/25 04:17:59;;;;;;;9.82;8.68;;;17.80;99.90;;;;;;4996902;28;20222;-79
2022/06/25 04:20:25;;;;;;;10.98;9.85;;;17.80;99.90;;;;;;4996833;28;20223;-80
2022/06/25 04:22:51;;;;;;;13.02;9.98;;;17.80;99.90;;;;;;4997244;28;20188;-80
2022/06/25 04:25:16;;;;;;;12.20;9.35;;;17.80;99.90;;;;;;4997745;28;20179;-80
2022/06/25 04:30:26;;;;;;;13.35;9.73;;;17.60;99.90;;;;;;4998596;28;20229;-79
2022/06/25 04:32:51;;;;;;;9.10;8.20;;;17.60;99.90;;;;;;4999252;28;20743;-79
2022/06/25 04:35:17;;;;;;;9.70;8.70;;;17.60;99.90;;;;;;4996588;28;20187;-80
2022/06/25 04:37:43;;;;;;;12.30;8.90;;;17.60;99.90;;;;;;4996915;28;20303;-80
2022/06/25 04:40:09;;;;;;;11.00;8.93;;;17.80;99.90;;;;;;4997426;28;20207;-80
2022/06/25 04:42:34;;;;;;;8.88;8.00;;;17.90;99.90;;;;;;4997153;28;20718;-80
2022/06/25 04:45:00;;;;;;;7.53;6.82;;;18.00;99.90;;;;;;4998012;28;20188;-79
2022/06/25 04:47:25;;;;;;;8.25;7.30;;;18.10;99.90;;;;;;4996219;28;20662;-79
2022/06/25 04:49:51;;;;;;;8.18;7.00;;;18.20;99.90;;;;;;4996928;28;20697;-79
2022/06/25 04:52:17;;;;;;;8.73;7.68;;;18.30;99.90;;;;;;4997499;28;20646;-79
2022/06/25 04:54:42;;;;;;;7.00;6.40;;;18.40;99.90;;;;;;4998681;28;20723;-79
2022/06/25 04:57:08;;;;;;;7.50;6.72;;;18.40;99.90;;;;;;4997267;28;20222;-79
2022/06/25 04:59:34;;;;;;;7.00;6.30;;;18.60;99.90;;;;;;4997332;28;20200;-79
2022/06/25 05:01:59;;;;;;;6.32;5.70;;;18.70;99.90;;;;;;4996610;28;20234;-80
2022/06/25 05:04:25;;;;;;;6.38;5.88;;;18.80;99.90;;;;;;4998892;28;20207;-79
2022/06/25 05:06:51;;;;;;;7.22;5.68;;;19.00;99.90;;;;;;4997518;28;20234;-79
2022/06/25 05:09:16;;;;;;;6.15;5.15;;;19.10;99.90;;;;;;4996957;28;20211;-80
2022/06/25 05:11:43;;;;;;;7.10;5.68;;;19.20;99.90;;;;;;4998596;28;20210;-79
2022/06/25 05:14:08;;;;;;;6.40;5.07;;;19.30;99.90;;;;;;4995220;28;20188;-80
2022/06/25 05:16:34;;;;;;;5.55;5.05;;;19.40;99.90;;;;;;4995169;28;20588;-79
2022/06/25 05:19:00;;;;;;;5.30;4.57;;;19.50;99.90;;;;;;4996528;28;20212;-79
2022/06/25 05:21:25;;;;;;;5.78;5.28;;;19.50;99.90;;;;;;4996720;28;20180;-79
2022/06/25 05:23:51;;;;;;;5.82;5.32;;;19.60;99.90;;;;;;4998051;28;20191;-79
2022/06/25 05:26:17;;;;;;;4.75;4.35;;;19.50;99.90;;;;;;4996501;28;20194;-79
2022/06/25 05:28:42;;;;;;;4.82;4.43;;;19.50;99.90;;;;;;4995416;28;20214;-79
2022/06/25 05:31:08;;;;;;;5.32;4.82;;;19.40;99.90;;;;;;4996451;28;20183;-80
2022/06/25 05:33:33;;;;;;;5.43;5.03;;;19.40;99.90;;;;;;4996897;28;20646;-80
2022/06/25 05:35:59;;;;;;;4.82;4.40;;;19.40;99.90;;;;;;4994614;28;20210;-79
2022/06/25 05:38:25;;;;;;;5.35;4.95;;;19.40;99.90;;;;;;4995936;28;20177;-79
2022/06/25 05:40:50;;;;;;;5.22;4.72;;;19.40;99.90;;;;;;4996307;28;20176;-79
2022/06/25 05:43:16;;;;;;;6.05;5.47;;;19.50;99.90;;;;;;4995910;28;20176;-79
2022/06/25 05:45:41;;;;;;;6.90;5.10;;;19.50;99.90;;;;;;4996735;28;20215;-79
2022/06/25 05:48:07;;;;;;;5.30;4.80;;;19.40;99.90;;;;;;4994996;28;20230;-79
2022/06/25 05:50:33;;;;;;;5.25;4.85;;;19.50;99.90;;;;;;4996303;28;20622;-79
2022/06/25 05:52:58;;;;;;;6.18;4.60;;;19.70;99.90;;;;;;4995637;28;20665;-80
2022/06/25 05:55:24;;;;;;;5.20;4.70;;;19.70;99.90;;;;;;4996282;28;20230;-79
2022/06/25 05:57:51;;;;;;;4.57;4.28;;;20.00;99.90;;;;;;4995438;28;20249;-80
2022/06/25 06:00:17;;;;;;;4.10;3.65;;;20.50;99.90;;;;;;4997107;28;20283;-80
2022/06/25 06:02:42;;;;;;;4.10;3.80;;;21.20;99.90;;;;;;4996137;28;20271;-79
2022/06/25 06:05:08;;;;;;;4.00;3.60;;;21.70;99.90;;;;;;4995954;28;20204;-79
2022/06/25 06:07:34;;;;;;;4.80;4.00;;;22.20;99.90;;;;;;4995228;28;20721;-80
2022/06/25 06:10:00;;;;;;;3.30;3.10;;;22.70;99.90;;;;;;4996828;28;20714;-79
2022/06/25 06:12:25;;;;;;;3.58;3.28;;;23.20;92.00;;;;;;5010398;28;20188;-81
2022/06/25 06:14:51;;;;;;;3.33;3.10;;;23.60;87.60;;;;;;4995497;28;20220;-81
2022/06/25 06:17:16;;;;;;;3.22;3.03;;;23.90;61.60;;;;;;4994430;28;20215;-80
2022/06/25 06:19:42;;;;;;;3.38;2.90;;;24.00;43.90;;;;;;4994103;28;20208;-80
2022/06/25 06:22:08;;;;;;;3.30;2.97;;;24.00;31.50;;;;;;4994583;28;20733;-82
2022/06/25 06:24:33;;;;;;;3.83;3.40;;;24.30;1.00;;;;;;4995058;28;20180;-80
2022/06/25 06:27:01;;;;;;;3.42;2.90;;;24.30;1.00;;;;;;4993550;28;20184;-80
2022/06/25 06:29:29;;;;;;;2.78;2.58;;;24.50;1.00;;;;;;4994543;28;20217;-80
2022/06/25 06:31:55;;;;;;;3.58;2.75;;;24.30;1.00;;;;;;5012908;28;20188;-80
2022/06/25 06:34:21;;;;;;;3.85;3.38;;;24.30;1.00;;;;;;4994949;28;20564;-80
2022/06/25 06:36:47;;;;;;;3.25;2.80;;;24.40;1.00;;;;;;4993175;28;20194;-80
2022/06/25 06:39:12;;;;;;;2.90;2.70;;;24.50;1.00;;;;;;4993901;28;20218;-80
2022/06/25 06:41:38;;;;;;;3.00;2.70;;;24.60;1.00;;;;;;4994619;28;20676;-80
2022/06/25 06:44:04;;;;;;;3.20;2.90;;;24.70;1.00;;;;;;4995849;28;20184;-84
2022/06/25 06:46:29;;;;;;;3.40;3.10;;;24.80;1.00;;;;;;4995192;28;20242;-84
2022/06/25 06:48:55;;;;;;;3.15;2.72;;;24.70;1.00;;;;;;4995470;28;20203;-84
2022/06/25 06:51:21;;;;;;;3.03;2.75;;;24.90;1.00;;;;;;4994203;28;20620;-83
2022/06/25 06:53:46;;;;;;;3.38;3.10;;;25.20;99.90;;;;;;4994786;28;20285;-84
2022/06/25 06:56:12;;;;;;;3.35;2.70;;;25.00;99.90;;;;;;4986698;28;20192;-82
2022/06/25 06:58:38;;;;;;;3.10;2.80;;;25.20;99.90;;;;;;4993088;28;20258;-83
2022/06/25 07:01:03;;;;;;;3.50;2.80;;;25.30;99.90;;;;;;4995024;28;20710;-84
2022/06/25 07:03:29;;;;;;;3.88;3.20;;;25.50;96.60;;;;;;4989378;28;20176;-83
2022/06/25 07:05:55;;;;;;;2.60;2.33;;;25.70;1.00;;;;;;4987464;28;20188;-84
2022/06/25 07:08:21;;;;;;;3.38;2.50;;;26.00;1.00;;;;;;4993712;28;20243;-84
2022/06/25 07:10:46;;;;;;;2.95;2.67;;;26.00;1.00;;;;;;4997513;28;20279;-83
2022/06/25 07:13:12;;;;;;;3.00;2.70;;;25.90;99.90;;;;;;4988414;28;20222;-83
2022/06/25 07:15:39;;;;;;;4.78;2.65;;;25.90;1.00;;;;;;4993413;28;20550;-84
2022/06/25 07:18:05;;;;;;;3.33;2.63;;;25.80;99.90;;;;;;4994355;28;20274;-83
2022/06/25 07:20:30;;;;;;;2.30;2.03;;;26.30;99.90;;;;;;4993468;28;20291;-84
2022/06/25 07:22:56;;;;;;;2.60;2.40;;;26.70;1.00;;;;;;4986044;28;20192;-84
2022/06/25 07:25:22;;;;;;;2.85;2.30;;;26.80;1.00;;;;;;4996422;28;20188;-84
2022/06/25 07:27:48;;;;;;;2.38;2.20;;;26.80;99.90;;;;;;4988720;28;20221;-84
2022/06/25 07:30:14;;;;;;;2.00;1.80;;;26.50;1.00;;;;;;4986207;28;20258;-83
2022/06/25 07:32:40;;;;;;;1.95;1.85;;;26.10;1.00;;;;;;4999198;28;20184;-83
2022/06/25 07:35:06;;;;;;;1.98;1.88;;;25.60;40.50;;;;;;4993527;28;20634;-81
2022/06/25 07:37:32;;;;;;;2.92;2.55;;;25.30;1.00;;;;;;4989352;28;20200;-83
2022/06/25 07:39:57;;;;;;;2.55;2.10;;;25.10;99.90;;;;;;4985162;28;20694;-82
2022/06/25 07:42:23;;;;;;;2.28;1.88;;;25.10;99.90;;;;;;4992538;28;20233;-79
2022/06/25 07:44:49;;;;;;;3.00;2.03;;;24.80;1.00;;;;;;4997299;28;20200;-79
2022/06/25 07:47:15;;;;;;;2.00;1.90;;;24.70;99.90;;;;;;4997468;28;20206;-82
2022/06/25 07:52:26;;;;;;;2.15;1.95;;;24.50;99.90;;;;;;4992330;28;21235;-84
2022/06/25 07:54:51;;;;;;;2.55;1.98;;;24.70;99.90;;;;;;4988571;28;20889;-83
2022/06/25 07:57:17;;;;;;;2.17;1.98;;;24.70;1.00;;;;;;4990925;28;20458;-83
2022/06/25 07:59:43;;;;;;;2.97;1.88;;;24.60;1.00;;;;;;4995330;28;20208;-84
2022/06/25 08:02:08;;;;;;;2.13;1.92;;;24.60;99.90;;;;;;4996682;28;20212;-82
2022/06/25 08:04:34;;;;;;;2.10;2.00;;;24.60;99.90;;;;;;4994259;28;20247;-82
2022/06/25 08:07:00;;;;;;;2.10;1.90;;;24.70;1.00;;;;;;4990417;28;20839;-84
2022/06/25 08:09:26;;;;;;;1.80;1.70;;;24.70;1.00;;;;;;4996333;28;20199;-84
2022/06/25 08:11:52;;;;;;;2.03;1.80;;;24.80;1.00;;;;;;4998626;28;20198;-84
2022/06/25 08:14:17;;;;;;;1.95;1.85;;;24.90;1.00;;;;;;4988523;28;20650;-84
2022/06/25 08:16:43;;;;;;;2.47;1.98;;;24.90;1.00;;;;;;4993836;28;20194;-84
2022/06/25 08:19:08;;;;;;;2.20;2.00;;;25.00;1.00;;;;;;4994134;28;20257;-84
2022/06/25 08:21:34;;;;;;;2.10;1.85;;;24.90;1.00;;;;;;4991963;28;20568;-84
2022/06/25 08:23:59;;;;;;;2.53;1.67;;;25.00;99.90;;;;;;4992834;28;20215;-83
2022/06/25 08:26:25;;;;;;;2.65;1.70;;;25.10;1.00;;;;;;4986693;28;20204;-83
2022/06/25 08:28:51;;;;;;;1.95;1.50;;;25.20;17.10;;;;;;4984598;28;20212;-83
2022/06/25 08:31:16;;;;;;;2.22;2.03;;;25.30;99.90;;;;;;4984831;28;20188;-83
2022/06/25 08:33:42;;;;;;;3.70;2.10;;;25.50;99.90;;;;;;4989948;28;20596;-84
2022/06/25 08:36:07;;;;;;;2.20;1.88;;;25.60;1.00;;;;;;4993547;28;20282;-83
2022/06/25 08:38:33;;;;;;;2.22;2.03;;;25.50;99.90;;;;;;4995758;28;20682;-83
2022/06/25 08:41:00;;;;;;;2.35;1.90;;;25.10;1.00;;;;;;4989996;28;20624;-83
2022/06/25 08:43:26;;;;;;;3.25;2.00;;;24.90;99.90;;;;;;4985549;28;20208;-83
2022/06/25 08:45:52;;;;;;;1.98;1.88;;;24.90;1.00;;;;;;4990633;28;20620;-83
2022/06/25 08:48:23;;;;;;;2.33;2.13;;;25.10;99.90;;;;;;4995755;28;20207;-81
2022/06/25 08:50:49;;;;;;;2.40;2.17;;;25.00;99.90;;;;;;4993351;28;20188;-83
2022/06/25 08:53:16;;;;;;;2.85;1.95;;;25.00;1.00;;;;;;4991318;28;20681;-83
2022/06/25 08:55:44;;;;;;;2.00;1.80;;;24.90;99.90;;;;;;4992983;28;20204;-83
2022/06/25 08:58:09;;;;;;;2.00;1.90;;;24.90;1.00;;;;;;4987031;28;20617;-83
2022/06/25 09:00:39;;;;;;;2.50;1.75;;;24.90;99.90;;;;;;4991732;28;20289;-83
2022/06/25 09:03:06;;;;;;;1.58;1.48;;;24.90;99.90;;;;;;4991268;28;20189;-83
2022/06/25 09:05:40;;;;;;;2.00;1.52;;;24.90;99.90;;;;;;4993226;28;20180;-83
2022/06/25 09:08:08;;;;;;;2.42;1.70;;;24.80;1.00;;;;;;4988294;28;20268;-83
2022/06/25 09:10:34;;;;;;;2.80;1.52;;;24.70;1.00;;;;;;4989117;28;20211;-83
2022/06/25 09:13:03;;;;;;;1.83;1.40;;;24.70;1.00;;;;;;4989341;28;20275;-84
2022/06/25 09:15:34;;;;;;;1.83;1.20;;;24.80;1.00;;;;;;4997287;28;20191;-84
2022/06/25 09:18:14;;;;;;;1.25;1.15;;;24.70;19.90;;;;;;4995708;28;20198;-83
2022/06/25 09:21:03;;;;;;;2.45;1.30;;;24.60;99.90;;;;;;4990990;28;20179;-83
2022/06/25 09:23:35;;;;;;;2.38;1.60;;;24.70;1.00;;;;;;4995589;28;20187;-82
2022/06/25 09:26:06;;;;;;;1.50;1.40;;;24.80;19.10;;;;;;4994097;28;20179;-83
2022/06/25 09:28:33;;;;;;;3.20;1.70;;;24.70;99.90;;;;;;4996379;28;20204;-87
2022/06/25 09:30:59;;;;;;;2.45;1.70;;;24.50;99.90;;;;;;4987995;28;20243;-84
2022/06/25 09:33:25;;;;;;;2.40;1.40;;;24.30;99.90;;;;;;5001392;28;20238;-85
2022/06/25 09:35:52;;;;;;;1.60;1.50;;;24.40;1.00;;;;;;4993015;28;20216;-84
2022/06/25 09:38:18;;;;;;;1.90;1.50;;;24.40;99.90;;;;;;4987569;28;20188;-84
2022/06/25 09:40:56;;;;;;;1.95;1.70;;;24.50;99.90;;;;;;4989997;28;20688;-84
2022/06/25 09:43:26;;;;;;;1.70;1.48;;;24.50;1.00;;;;;;5004166;28;20184;-84
2022/06/25 09:46:03;;;;;;;1.80;1.70;;;24.40;99.90;;;;;;4992014;28;20192;-84
2022/06/25 09:48:31;;;;;;;1.85;1.60;;;24.40;88.30;;;;;;5000113;28;20231;-84
2022/06/25 09:51:10;;;;;;;1.40;1.30;;;24.40;1.00;;;;;;4992681;28;20566;-84
2022/06/25 09:53:46;;;;;;;1.45;1.35;;;24.30;1.00;;;;;;4993825;28;20262;-84
2022/06/25 09:56:14;;;;;;;1.70;1.50;;;24.40;1.00;;;;;;4988969;28;20320;-85
2022/06/25 09:58:42;;;;;;;2.10;1.60;;;24.50;1.00;;;;;;4993231;28;20200;-84
2022/06/25 10:01:08;;;;;;;1.50;1.40;;;24.50;1.00;;;;;;4994152;28;20187;-84
2022/06/25 10:03:35;;;;;;;1.70;1.60;;;24.40;1.00;;;;;;4994458;28;20250;-82
2022/06/25 10:06:02;;;;;;;1.75;1.27;;;24.40;99.90;;;;;;4997432;28;20254;-81
2022/06/25 10:08:29;;;;;;;1.40;1.30;;;24.40;99.90;;;;;;4991403;28;20222;-84
2022/06/25 10:10:56;;;;;;;1.60;1.20;;;24.50;1.00;;;;;;5014859;28;20210;-84
2022/06/25 10:13:22;;;;;;;1.45;1.35;;;24.60;1.00;;;;;;4997067;28;20195;-83
2022/06/25 10:15:49;;;;;;;2.03;1.33;;;24.60;1.00;;;;;;5013369;28;20266;-83
2022/06/25 10:18:15;;;;;;;2.03;1.60;;;24.80;1.00;;;;;;4992810;28;20180;-84
2022/06/25 10:20:42;;;;;;;1.95;1.42;;;24.90;1.00;;;;;;4991993;28;20189;-83
2022/06/25 10:23:11;;;;;;;1.90;1.40;;;24.90;92.90;;;;;;4994319;28;20208;-81
2022/06/25 10:25:38;;;;;;;2.72;1.80;;;24.90;1.00;;;;;;4999606;28;20684;-79
2022/06/25 10:28:08;;;;;;;1.42;1.33;;;24.90;1.00;;;;;;4990052;28;20617;-80
2022/06/25 10:30:36;;;;;;;2.42;1.23;;;24.90;1.00;;;;;;4995673;28;20210;-81
2022/06/25 10:33:02;;;;;;;1.48;1.38;;;25.00;1.00;;;;;;4990537;28;20190;-82
2022/06/25 10:35:30;;;;;;;1.30;1.20;;;25.10;1.00;;;;;;4991400;28;20184;-82
2022/06/25 10:38:06;;;;;;;1.63;1.00;;;25.00;1.00;;;;;;5003095;28;20682;-82
2022/06/25 10:40:33;;;;;;;1.20;1.10;;;25.10;1.00;;;;;;4984888;28;20204;-81
2022/06/25 10:43:04;;;;;;;1.35;1.10;;;25.10;69.50;;;;;;4998723;28;20191;-81
2022/06/25 10:45:32;;;;;;;1.90;1.00;;;25.10;99.90;;;;;;4994034;28;20191;-84
2022/06/25 10:48:00;;;;;;;2.28;1.27;;;25.20;1.00;;;;;;4995548;28;20230;-82
2022/06/25 10:50:29;;;;;;;1.23;1.00;;;25.40;1.00;;;;;;4992902;28;20462;-82
2022/06/25 10:53:10;;;;;;;1.55;0.90;;;25.50;99.90;;;;;;4989540;28;20446;-81
2022/06/25 10:55:37;;;;;;;1.10;1.00;;;25.50;99.90;;;;;;4987490;28;20249;-82
2022/06/25 10:58:16;;;;;;;1.50;1.40;;;25.50;1.00;;;;;;4987771;28;20200;-81
2022/06/25 11:00:55;;;;;;;1.42;1.10;;;25.60;1.00;;;;;;4982192;28;20216;-82
2022/06/25 11:03:27;;;;;;;1.95;1.10;;;25.40;99.90;;;;;;5006754;28;20618;-81
2022/06/25 11:05:54;;;;;;;1.60;1.00;;;25.40;1.00;;;;;;4981746;28;20678;-81
2022/06/25 11:08:22;;;;;;;1.15;1.00;;;25.60;1.00;;;;;;4986060;28;20212;-81
2022/06/25 11:10:49;;;;;;;1.08;0.82;;;25.70;1.00;;;;;;4991773;28;20689;-85
2022/06/25 11:13:15;;;;;;;1.38;1.08;;;25.90;99.90;;;;;;4988661;28;20270;-85
2022/06/25 11:15:43;;;;;;;1.85;1.00;;;26.00;99.90;;;;;;4994205;28;20266;-85
2022/06/25 11:18:11;;;;;;;1.98;1.00;;;26.00;99.90;;;;;;4983144;28;20187;-85
2022/06/25 11:20:38;;;;;;;1.75;1.00;;;25.80;1.00;;;;;;4991186;28;20567;-85
2022/06/25 11:23:04;;;;;;;0.93;0.90;;;25.90;1.00;;;;;;4991485;28;20196;-85
2022/06/25 11:28:49;;;;;;;1.27;1.17;;;26.10;99.90;;;;;;4989250;28;20246;-84
2022/06/25 11:31:15;;;;;;;1.40;1.00;;;26.20;1.00;;;;;;4991239;28;20207;-85
2022/06/25 11:33:43;;;;;;;1.20;1.10;;;26.30;1.00;;;;;;4986213;28;20601;-85
2022/06/25 11:36:09;;;;;;;1.30;1.20;;;26.30;63.40;;;;;;4989230;28;20607;-84
2022/06/25 11:38:35;;;;;;;1.70;1.50;;;26.30;1.00;;;;;;4991787;28;20291;-85
2022/06/25 11:41:01;;;;;;;1.30;1.20;;;26.40;1.00;;;;;;4982203;28;20275;-84
2022/06/25 11:43:27;;;;;;;1.20;1.10;;;26.40;1.00;;;;;;4994339;28;20177;-85
2022/06/25 11:45:56;;;;;;;1.20;1.10;;;26.40;1.00;;;;;;4994394;28;20183;-85
2022/06/25 11:48:30;;;;;;;1.25;1.15;;;26.50;1.00;;;;;;4997092;28;20295;-85
2022/06/25 11:51:00;;;;;;;2.30;1.20;;;26.50;1.00;;;;;;4990158;28;20211;-85
2022/06/25 11:53:26;;;;;;;3.22;1.48;;;26.50;1.00;;;;;;4992476;28;20180;-84
2022/06/25 11:56:01;;;;;;;2.22;1.13;;;26.40;1.00;;;;;;4997056;28;20187;-84
2022/06/25 11:58:30;;;;;;;1.48;1.15;;;26.50;1.00;;;;;;5011336;28;20188;-85
2022/06/25 12:00:57;;;;;;;1.20;1.10;;;26.40;1.00;;;;;;4998193;28;20618;-85
2022/06/25 12:03:24;;;;;;;1.25;1.15;;;26.40;1.00;;;;;;4995062;28;20191;-85
2022/06/25 12:05:51;;;;;;;1.27;1.17;;;26.30;99.90;;;;;;4994338;28;20180;-85
2022/06/25 12:08:17;;;;;;;1.67;1.45;;;26.20;99.90;;;;;;4997403;28;20295;-85
2022/06/25 12:10:45;;;;;;;1.77;1.40;;;26.40;99.90;;;;;;4988076;28;20274;-84
2022/06/25 12:13:19;;;;;;;1.45;1.35;;;26.40;99.90;;;;;;5002904;28;20182;-85
2022/06/25 12:15:45;;;;;;;2.08;1.20;;;26.60;99.90;;;;;;4994782;28;20190;-85
2022/06/25 12:18:10;;;;;;;3.13;1.45;;;26.90;99.90;;;;;;4991213;28;20192;-85
2022/06/25 12:20:53;;;;;;;1.70;1.48;;;26.80;99.90;;;;;;4993097;28;20319;-83
2022/06/25 12:23:18;;;;;;;2.38;1.67;;;26.90;99.90;;;;;;4988468;28;20184;-85
2022/06/25 12:25:44;;;;;;;2.10;1.42;;;27.10;99.90;;;;;;4993033;28;20609;-81
2022/06/25 12:28:10;;;;;;;1.75;1.10;;;27.20;99.90;;;;;;4996509;28;20223;-82
2022/06/25 12:30:36;;;;;;;1.40;1.30;;;27.20;99.90;;;;;;4997210;28;20424;-82
2022/06/25 12:33:05;;;;;;;1.83;1.20;;;27.20;99.90;;;;;;4994842;28;20185;-82
2022/06/25 12:35:33;;;;;;;1.02;1.02;;;27.30;99.90;;;;;;4993141;28;20187;-84
2022/06/25 12:38:02;;;;;;;1.13;1.02;;;27.30;99.90;;;;;;4997448;28;20558;-84
2022/06/25 12:40:29;;;;;;;0.90;0.90;;;27.30;15.70;;;;;;4984717;28;20207;-84
2022/06/25 12:42:56;;;;;;;1.77;1.10;;;27.30;1.00;;;;;;4995822;28;20192;-84
2022/06/25 12:45:22;;;;;;;1.30;1.08;;;27.40;1.00;;;;;;4993108;28;20638;-83
2022/06/25 12:47:48;;;;;;;1.40;1.30;;;27.40;7.50;;;;;;4987953;28;20639;-83
2022/06/25 12:50:31;;;;;;;1.20;1.10;;;27.40;1.00;;;;;;4990443;28;20192;-83
2022/06/25 12:53:06;;;;;;;1.42;1.10;;;27.50;1.00;;;;;;4996348;28;20184;-83
2022/06/25 12:55:31;;;;;;;2.25;1.30;;;27.50;1.00;;;;;;4994116;28;20200;-84
2022/06/25 12:58:05;;;;;;;1.52;1.42;;;27.50;1.00;;;;;;4985696;28;20194;-84